FYLZ/LUD METAR and TAF weather

Enter ICAO airport designator
Station Type Date Time Source
FYLZ METAR 2022/01/29 10:00 UTC NOAA

FYLZ 291000Z AUTO 21009KT //// // ////// 26/15 Q1009


Station Type Date Time Source
FYLZ Decoded METAR 2022/01/29 10:00 UTC NOAA

Luderitz / Diaz Point, Namibia (FYLZ) 26-41S 015-15E
Jan 29, 2022 - 05:00 AM EST / 2022.01.29 1000 UTC
Wind: from the SSW (210 degrees) at 10 MPH (9 KT):0
Temperature: 78 F (26 C)
Dew Point: 59 F (15 C)
Relative Humidity: 50%
Pressure (altimeter): 29.80 in. Hg (1009 hPa)
ob: FYLZ 291000Z AUTO 21009KT //// // ////// 26/15 Q1009
cycle: 10

Station Type Date Time Source
FYLZ TAF 2014/11/15 15:19 UTC NOAA

TAF FYLZ 151400Z 1515/1524 18015G28KT CAVOK
BECMG 1518/1520 16020KT

Example: see airport list